createdAt,value
2017-07-17T00:02:02.881Z,18.1
2017-07-17T00:07:02.955Z,18.0
2017-07-17T00:12:02.743Z,17.9
2017-07-17T00:17:03.683Z,17.9
2017-07-17T00:22:02.729Z,17.5
2017-07-17T00:27:03.501Z,17.5
2017-07-17T00:32:03.175Z,17.3
2017-07-17T00:37:03.329Z,17.1
2017-07-17T00:42:02.912Z,17.1
2017-07-17T00:47:03.528Z,17.1
2017-07-17T00:52:03.200Z,17.1
2017-07-17T00:57:03.108Z,17.1
2017-07-17T01:02:02.735Z,17.0
2017-07-17T01:07:03.269Z,16.9
2017-07-17T01:12:03.365Z,16.9
2017-07-17T01:17:02.944Z,16.7
2017-07-17T01:22:03.130Z,16.6
2017-07-17T01:27:02.746Z,16.7
2017-07-17T01:32:04.269Z,16.5
2017-07-17T01:37:03.038Z,16.5
2017-07-17T01:42:02.731Z,16.2
2017-07-17T01:47:03.406Z,16.2
2017-07-17T01:52:03.079Z,16.0
2017-07-17T01:57:02.852Z,16.0
2017-07-17T02:02:02.720Z,16.0
2017-07-17T02:07:03.609Z,15.9
2017-07-17T02:12:03.357Z,16.0
2017-07-17T02:17:03.216Z,15.9
2017-07-17T02:22:02.988Z,16.0
2017-07-17T02:27:03.626Z,16.0
2017-07-17T02:32:03.262Z,16.1
2017-07-17T02:37:03.037Z,16.0
2017-07-17T02:42:03.185Z,16.1
2017-07-17T02:47:04.129Z,16.1
2017-07-17T02:52:02.866Z,16.1
2017-07-17T02:57:03.189Z,16.1
2017-07-17T03:02:14.421Z,16.1
2017-07-17T03:07:02.945Z,15.9
2017-07-17T03:12:03.573Z,15.9
2017-07-17T03:17:13.648Z,15.9
2017-07-17T03:22:03.409Z,15.8
2017-07-17T03:27:03.124Z,15.8
2017-07-17T03:32:13.759Z,15.6
2017-07-17T03:37:03.057Z,15.4
2017-07-17T03:42:03.532Z,15.3
2017-07-17T03:47:13.531Z,15.4
2017-07-17T03:52:03.328Z,15.3
2017-07-17T03:57:02.789Z,15.5
2017-07-17T04:02:13.718Z,15.6
2017-07-17T04:07:02.780Z,15.7
2017-07-17T04:12:03.334Z,15.6
2017-07-17T04:17:14.056Z,15.8
2017-07-17T04:22:03.093Z,15.9
2017-07-17T04:27:03.494Z,16.0
2017-07-17T04:32:13.108Z,16.1
2017-07-17T04:37:03.342Z,16.3
2017-07-17T04:42:02.758Z,16.2
2017-07-17T04:47:13.506Z,16.4
2017-07-17T04:52:03.177Z,16.4
2017-07-17T04:57:03.426Z,16.4
2017-07-17T05:02:13.131Z,16.5
2017-07-17T05:07:03.246Z,16.7
2017-07-17T05:12:02.791Z,16.6
2017-07-17T05:17:29.818Z,16.9
2017-07-17T05:22:02.694Z,17.3
2017-07-17T05:27:03.141Z,17.2
2017-07-17T05:32:13.969Z,17.5
2017-07-17T05:37:03.297Z,17.8
2017-07-17T05:42:02.620Z,18.1
2017-07-17T05:47:13.748Z,18.5
2017-07-17T05:52:02.716Z,18.4
2017-07-17T05:57:03.107Z,19.3
2017-07-17T06:02:14.064Z,19.2
2017-07-17T06:07:02.762Z,19.6
2017-07-17T06:12:03.318Z,20.2
2017-07-17T06:17:14.336Z,20.5
2017-07-17T06:22:03.539Z,20.5
2017-07-17T06:27:02.991Z,20.8
2017-07-17T06:32:13.935Z,21.0
2017-07-17T06:37:03.117Z,21.3
2017-07-17T06:42:03.455Z,21.5
2017-07-17T06:47:13.173Z,21.8
2017-07-17T06:52:02.933Z,22.4
2017-07-17T06:57:03.377Z,22.4
2017-07-17T07:02:28.840Z,22.7
2017-07-17T07:07:03.363Z,23.0
2017-07-17T07:12:02.971Z,23.7
2017-07-17T07:17:17.358Z,24.1
2017-07-17T07:22:03.497Z,24.4
2017-07-17T07:27:02.910Z,24.4
2017-07-17T07:32:29.193Z,25.2
2017-07-17T07:37:03.249Z,25.6
2017-07-17T07:42:02.702Z,25.9
2017-07-17T07:47:13.288Z,26.1
2017-07-17T07:52:03.333Z,26.3
2017-07-17T07:57:02.738Z,26.6
2017-07-17T08:02:16.995Z,26.9
2017-07-17T08:07:03.061Z,26.9
2017-07-17T08:12:03.452Z,27.3
2017-07-17T08:17:22.870Z,27.9
2017-07-17T08:22:03.389Z,28.1
2017-07-17T08:27:02.934Z,28.1
2017-07-17T08:32:10.967Z,28.2
2017-07-17T08:37:03.103Z,28.5
2017-07-17T08:42:03.473Z,28.9
2017-07-17T08:47:17.435Z,29.1
2017-07-17T08:52:03.149Z,29.3
2017-07-17T08:57:03.583Z,29.4
2017-07-17T09:02:17.420Z,29.5
2017-07-17T09:07:03.258Z,30.1
2017-07-17T09:12:02.873Z,30.5
2017-07-17T09:17:13.738Z,30.5
2017-07-17T09:22:02.874Z,30.9
2017-07-17T09:27:03.236Z,31.2
2017-07-17T09:32:13.758Z,31.6
2017-07-17T09:37:03.317Z,31.9
2017-07-17T09:42:03.580Z,31.9
2017-07-17T09:47:13.300Z,31.3
2017-07-17T09:52:02.744Z,31.3
2017-07-17T09:57:03.302Z,31.6
2017-07-17T10:02:17.039Z,32.1
2017-07-17T10:07:02.924Z,32.7
2017-07-17T10:12:03.518Z,33.3
2017-07-17T10:17:13.342Z,33.8
2017-07-17T10:22:02.828Z,34.2
2017-07-17T10:27:03.330Z,33.7
2017-07-17T10:32:17.144Z,33.7
2017-07-17T10:37:03.116Z,33.5
2017-07-17T10:42:03.424Z,33.3
2017-07-17T10:47:17.330Z,33.8
2017-07-17T10:52:03.330Z,33.8
2017-07-17T10:57:02.782Z,33.5
2017-07-17T11:02:13.651Z,33.6
2017-07-17T11:07:03.478Z,33.7
2017-07-17T11:12:02.882Z,33.7
2017-07-17T11:17:17.674Z,34.7
2017-07-17T11:22:02.912Z,34.5
2017-07-17T11:27:03.443Z,34.5
2017-07-17T11:32:16.630Z,35.5
2017-07-17T11:37:03.219Z,35.4
2017-07-17T11:42:03.603Z,35.9
2017-07-17T11:57:03.318Z,34.3
2017-07-17T12:02:17.453Z,34.3
2017-07-17T12:07:03.337Z,34.1
2017-07-17T12:12:03.033Z,34.1
2017-07-17T12:17:13.949Z,34.2
2017-07-17T12:22:02.991Z,35.9
2017-07-17T12:27:03.464Z,35.9
2017-07-17T12:32:12.927Z,36.3
2017-07-17T12:37:03.018Z,36.3
2017-07-17T12:42:03.393Z,36.3
2017-07-17T12:47:17.496Z,36.2
2017-07-17T12:52:03.106Z,35.6
2017-07-17T12:57:03.555Z,35.5
2017-07-17T13:02:13.493Z,36.2
2017-07-17T13:07:03.403Z,36.4
2017-07-17T13:12:03.045Z,36.7
2017-07-17T13:17:14.278Z,35.9
2017-07-17T13:22:03.493Z,35.9
2017-07-17T13:27:03.262Z,35.1
2017-07-17T13:32:17.010Z,35.6
2017-07-17T13:37:03.199Z,35.6
2017-07-17T13:42:03.518Z,36.4
2017-07-17T13:47:17.158Z,36.4
2017-07-17T13:52:03.400Z,35.7
2017-07-17T13:57:02.850Z,34.8
2017-07-17T14:02:13.584Z,34.1
2017-07-17T14:07:03.014Z,34.0
2017-07-17T14:12:03.448Z,34.0
2017-07-17T14:17:13.396Z,34.8
2017-07-17T14:22:03.445Z,35.2
2017-07-17T14:27:02.760Z,35.2
2017-07-17T14:32:13.455Z,35.1
2017-07-17T14:37:03.551Z,35.9
2017-07-17T14:42:02.910Z,35.9
2017-07-17T14:47:13.727Z,36.5
2017-07-17T14:52:03.404Z,36.5
2017-07-17T14:57:03.999Z,40.3
2017-07-17T15:02:05.758Z,40.3
2017-07-17T15:07:02.779Z,43.3
2017-07-17T15:12:03.356Z,43.2
2017-07-17T15:17:14.256Z,41.8
2017-07-17T15:22:03.309Z,41.6
2017-07-17T15:27:03.578Z,39.4
2017-07-17T15:32:13.389Z,35.6
2017-07-17T15:37:03.376Z,35.7
2017-07-17T15:42:02.768Z,35.0
2017-07-17T15:47:13.661Z,35.4
2017-07-17T15:52:03.128Z,37.4
2017-07-17T15:57:03.391Z,37.4
2017-07-17T16:02:13.215Z,36.5
2017-07-17T16:07:03.324Z,36.5
2017-07-17T16:12:02.866Z,39.0
2017-07-17T16:17:13.824Z,37.7
2017-07-17T16:22:03.438Z,37.5
2017-07-17T16:27:02.787Z,37.5
2017-07-17T16:32:13.495Z,37.9
2017-07-17T16:37:02.735Z,36.7
2017-07-17T16:42:03.064Z,34.5
2017-07-17T16:47:13.877Z,34.0
2017-07-17T16:52:03.295Z,33.7
2017-07-17T16:57:03.580Z,33.7
2017-07-17T17:02:13.415Z,33.8
2017-07-17T17:07:02.849Z,33.1
2017-07-17T17:12:03.402Z,33.1
2017-07-17T17:17:14.148Z,32.9
2017-07-17T17:22:03.026Z,33.1
2017-07-17T17:27:03.308Z,40.0
2017-07-17T17:32:16.305Z,39.9
2017-07-17T17:37:03.152Z,45.2
2017-07-17T17:42:03.446Z,49.7
2017-07-17T17:47:14.512Z,50.3
2017-07-17T17:52:02.895Z,50.5
2017-07-17T17:57:03.140Z,50.4
2017-07-17T18:02:13.848Z,50.0
2017-07-17T18:07:03.290Z,47.5
2017-07-17T18:12:03.627Z,42.8
2017-07-17T18:17:13.488Z,38.9
2017-07-17T18:22:02.770Z,36.6
2017-07-17T18:27:03.121Z,36.6
2017-07-17T18:32:13.814Z,35.1
2017-07-17T18:37:03.133Z,34.0
2017-07-17T18:42:03.438Z,33.0
2017-07-17T18:47:13.158Z,31.4
2017-07-17T18:52:02.996Z,31.4
2017-07-17T18:57:03.354Z,30.9
2017-07-17T19:02:13.219Z,30.3
2017-07-17T19:07:02.996Z,29.8
2017-07-17T19:12:03.381Z,29.3
2017-07-17T19:17:13.618Z,28.3
2017-07-17T19:22:03.461Z,27.8
2017-07-17T19:27:03.016Z,27.7
2017-07-17T19:32:13.329Z,27.4
2017-07-17T19:37:03.195Z,27.0
2017-07-17T19:42:03.453Z,26.5
2017-07-17T19:47:13.451Z,26.2
2017-07-17T19:52:03.173Z,25.9
2017-07-17T19:57:03.497Z,25.5
2017-07-17T20:02:08.501Z,24.9
2017-07-17T20:07:03.272Z,24.6
2017-07-17T20:12:02.848Z,24.6
2017-07-17T20:17:05.556Z,24.5
2017-07-17T20:22:03.550Z,24.4
2017-07-17T20:27:02.978Z,24.3
2017-07-17T20:32:03.445Z,24.1
2017-07-17T20:37:03.531Z,24.0
2017-07-17T20:42:02.881Z,23.9
2017-07-17T20:47:03.151Z,23.8
2017-07-17T20:52:03.432Z,23.6
2017-07-17T20:57:02.812Z,23.6
2017-07-17T21:02:03.127Z,23.5
2017-07-17T21:07:03.437Z,23.5
2017-07-17T21:12:03.258Z,23.5
2017-07-17T21:17:03.639Z,23.5
2017-07-17T21:22:03.003Z,23.4
2017-07-17T21:27:03.232Z,23.4
2017-07-17T21:32:03.836Z,23.5
2017-07-17T21:37:02.856Z,23.4
2017-07-17T21:42:03.150Z,23.3
2017-07-17T21:47:03.502Z,23.3
2017-07-17T21:52:03.017Z,23.3
2017-07-17T21:57:03.178Z,23.3
2017-07-17T22:02:03.668Z,23.0
2017-07-17T22:07:03.046Z,23.0
2017-07-17T22:12:03.305Z,23.0
2017-07-17T22:22:03.708Z,23.0
2017-07-17T22:27:02.917Z,22.9
2017-07-17T22:32:03.417Z,22.9
2017-07-17T22:37:02.860Z,22.8
2017-07-17T22:42:03.383Z,22.8
2017-07-17T22:47:02.906Z,22.7
2017-07-17T22:52:03.403Z,22.4
2017-07-17T22:57:03.004Z,22.4
2017-07-17T23:02:02.754Z,22.3
2017-07-17T23:07:03.193Z,22.2
2017-07-17T23:12:03.097Z,22.0
2017-07-17T23:17:02.904Z,21.8
2017-07-17T23:22:03.328Z,21.8
2017-07-17T23:27:03.004Z,21.8
2017-07-17T23:32:03.632Z,21.6
2017-07-17T23:37:03.346Z,21.4
2017-07-17T23:42:03.175Z,21.4
2017-07-17T23:47:03.173Z,21.3
2017-07-17T23:52:02.703Z,21.2
2017-07-17T23:57:03.522Z,21.2
